Time;durP1;ratioP1;P1;durP2;ratioP2;P2;SDS_P1;SDS_P2;PMS_P1;PMS_P2;Temp;Humidity;BMP_temperature;BMP_pressure;BME280_temperature;BME280_humidity;BME280_pressure;Samples;Min_cycle;Max_cycle;Signal;HPM_P1;HPM_P2
2021/06/15 00:01:16;;;;;;;13.93;12.52;;;17.20;99.90;;;;;;5069683;28;20086;-69
2021/06/15 00:03:47;;;;;;;14.65;13.23;;;17.20;99.90;;;;;;5061061;28;20043;-69
2021/06/15 00:06:14;;;;;;;13.90;12.57;;;17.10;99.90;;;;;;5071035;28;20072;-69
2021/06/15 00:08:41;;;;;;;14.25;13.02;;;17.00;99.90;;;;;;5079315;28;20048;-69
2021/06/15 00:11:09;;;;;;;14.00;12.63;;;17.00;99.90;;;;;;5068680;28;20067;-69
2021/06/15 00:13:36;;;;;;;16.08;12.95;;;17.00;99.90;;;;;;5070001;28;20139;-69
2021/06/15 00:16:04;;;;;;;14.82;12.70;;;17.00;99.90;;;;;;5053473;28;20051;-69
2021/06/15 00:18:33;;;;;;;14.60;13.10;;;16.90;99.90;;;;;;5064338;28;20570;-69
2021/06/15 00:21:00;;;;;;;14.32;12.90;;;16.90;99.90;;;;;;5058253;28;20075;-69
2021/06/15 00:23:28;;;;;;;16.75;12.95;;;16.90;99.90;;;;;;5065577;28;20563;-69
2021/06/15 00:26:02;;;;;;;14.00;12.50;;;16.80;99.90;;;;;;5066082;28;20500;-69
2021/06/15 00:28:30;;;;;;;14.43;12.82;;;16.80;99.90;;;;;;5058917;28;20078;-69
2021/06/15 00:30:58;;;;;;;14.25;12.77;;;16.80;99.90;;;;;;5060935;28;20561;-69
2021/06/15 00:33:25;;;;;;;14.23;12.50;;;16.80;99.90;;;;;;5053494;28;20051;-69
2021/06/15 00:35:53;;;;;;;14.52;12.40;;;16.80;99.90;;;;;;5058834;28;20499;-69
2021/06/15 00:38:20;;;;;;;13.48;12.05;;;16.70;99.90;;;;;;5070225;28;20575;-69
2021/06/15 00:40:48;;;;;;;13.50;12.13;;;16.70;99.90;;;;;;5070358;28;20422;-70
2021/06/15 00:43:16;;;;;;;15.13;13.15;;;16.70;99.90;;;;;;5067821;28;20044;-69
2021/06/15 00:45:43;;;;;;;12.82;11.63;;;16.70;99.90;;;;;;5052836;28;20044;-69
2021/06/15 00:48:36;;;;;;;12.73;11.52;;;16.70;99.90;;;;;;5068738;28;20044;-69
2021/06/15 00:51:07;;;;;;;14.52;12.38;;;16.70;99.90;;;;;;5069410;28;20545;-69
2021/06/15 00:53:36;;;;;;;13.02;11.80;;;16.70;99.90;;;;;;5068670;28;20045;-69
2021/06/15 00:56:04;;;;;;;12.90;11.70;;;16.70;99.90;;;;;;5067308;28;20084;-69
2021/06/15 00:58:33;;;;;;;13.23;11.95;;;16.70;99.90;;;;;;5067695;28;20049;-69
2021/06/15 01:01:05;;;;;;;12.80;11.45;;;16.70;99.90;;;;;;5068914;28;20045;-69
2021/06/15 01:03:33;;;;;;;13.98;11.85;;;16.70;99.90;;;;;;5068696;28;20045;-69
2021/06/15 01:06:06;;;;;;;13.88;12.43;;;16.70;99.90;;;;;;5048145;28;20163;-69
2021/06/15 01:08:45;;;;;;;12.88;11.52;;;16.70;99.90;;;;;;5072494;28;20055;-69
2021/06/15 01:11:39;;;;;;;12.57;11.57;;;16.60;99.90;;;;;;5064667;28;20059;-69
2021/06/15 01:14:25;;;;;;;12.77;11.48;;;16.60;99.90;;;;;;5070639;28;20052;-69
2021/06/15 01:16:58;;;;;;;12.18;10.93;;;16.50;99.90;;;;;;5068379;28;21164;-69
2021/06/15 01:19:44;;;;;;;13.50;12.02;;;16.50;99.90;;;;;;5069116;28;20124;-69
2021/06/15 01:22:20;;;;;;;14.77;12.07;;;16.40;99.90;;;;;;5068640;28;20045;-69
2021/06/15 01:25:04;;;;;;;14.40;12.02;;;16.50;99.90;;;;;;5069169;28;20044;-69
2021/06/15 01:27:52;;;;;;;12.98;11.68;;;16.50;99.90;;;;;;5089449;28;20514;-69
2021/06/15 01:30:34;;;;;;;12.65;11.45;;;16.50;99.90;;;;;;5065766;28;20061;-68
2021/06/15 01:33:04;;;;;;;13.35;11.93;;;16.50;99.90;;;;;;5056786;28;20044;-68
2021/06/15 01:35:33;;;;;;;12.60;11.25;;;16.50;99.90;;;;;;5044413;28;20048;-68
2021/06/15 01:38:14;;;;;;;12.20;11.05;;;16.40;99.90;;;;;;5045863;28;20053;-68
2021/06/15 01:41:11;;;;;;;12.73;11.52;;;16.40;99.90;;;;;;5068767;28;20462;-68
2021/06/15 01:43:44;;;;;;;12.88;11.40;;;16.30;99.90;;;;;;5035146;28;20106;-68
2021/06/15 01:46:19;;;;;;;12.35;11.15;;;16.30;99.90;;;;;;5072640;28;20048;-68
2021/06/15 01:48:53;;;;;;;12.52;11.30;;;16.30;99.90;;;;;;5070407;28;20063;-68
2021/06/15 01:51:23;;;;;;;13.13;11.75;;;16.30;99.90;;;;;;5055820;28;20048;-68
2021/06/15 01:53:59;;;;;;;12.80;11.60;;;16.30;99.90;;;;;;5061320;28;20484;-68
2021/06/15 01:56:35;;;;;;;12.05;10.85;;;16.30;99.90;;;;;;5072419;28;20845;-68
2021/06/15 01:59:10;;;;;;;12.48;11.18;;;16.20;99.90;;;;;;5057535;28;20102;-68
2021/06/15 02:01:44;;;;;;;12.38;11.23;;;16.20;99.90;;;;;;5071183;28;20106;-69
2021/06/15 02:04:17;;;;;;;12.98;11.25;;;16.20;99.90;;;;;;5060960;28;20529;-68
2021/06/15 02:06:47;;;;;;;11.88;10.68;;;16.10;99.90;;;;;;5054397;28;20049;-68
2021/06/15 02:09:17;;;;;;;12.65;11.45;;;16.10;99.90;;;;;;5072246;28;20040;-69
2021/06/15 02:11:50;;;;;;;12.85;11.32;;;16.10;99.90;;;;;;5071964;28;20102;-69
2021/06/15 02:14:38;;;;;;;11.93;10.90;;;16.10;99.90;;;;;;5071799;28;20420;-69
2021/06/15 02:17:39;;;;;;;13.00;11.80;;;16.10;99.90;;;;;;5064654;28;20040;-69
2021/06/15 02:20:14;;;;;;;13.32;11.65;;;16.00;99.90;;;;;;5071358;28;20434;-68
2021/06/15 02:22:48;;;;;;;12.80;11.60;;;16.00;99.90;;;;;;5058486;28;20160;-69
2021/06/15 02:25:42;;;;;;;12.77;11.68;;;16.00;99.90;;;;;;5066442;28;20506;-68
2021/06/15 02:28:11;;;;;;;12.10;11.00;;;15.90;99.90;;;;;;5070723;28;20486;-68
2021/06/15 02:30:39;;;;;;;12.80;11.60;;;16.00;99.90;;;;;;5088384;28;20070;-68
2021/06/15 02:33:11;;;;;;;12.15;11.15;;;15.90;99.90;;;;;;5069976;28;20082;-68
2021/06/15 02:35:46;;;;;;;12.60;11.35;;;16.00;99.90;;;;;;5065650;28;20116;-69
2021/06/15 02:38:25;;;;;;;11.88;10.77;;;15.90;99.90;;;;;;5053844;28;20422;-68
2021/06/15 02:40:57;;;;;;;12.27;11.15;;;15.90;99.90;;;;;;5070373;28;20590;-68
2021/06/15 02:43:26;;;;;;;13.52;12.23;;;15.80;99.90;;;;;;5070607;28;20037;-68
2021/06/15 02:45:55;;;;;;;13.13;11.82;;;15.70;99.90;;;;;;5088335;28;20064;-68
2021/06/15 02:48:25;;;;;;;12.90;11.65;;;15.70;99.90;;;;;;5050604;28;20076;-68
2021/06/15 02:50:53;;;;;;;13.10;11.80;;;15.70;99.90;;;;;;5084743;28;20048;-69
2021/06/15 02:53:42;;;;;;;13.27;11.93;;;15.70;99.90;;;;;;5052041;28;20083;-68
2021/06/15 02:56:15;;;;;;;13.07;11.77;;;15.70;99.90;;;;;;5071325;28;20041;-69
2021/06/15 02:58:44;;;;;;;12.50;11.30;;;15.70;99.90;;;;;;5048796;28;20041;-68
2021/06/15 03:01:12;;;;;;;12.23;11.13;;;15.60;99.90;;;;;;5066897;28;20140;-68
2021/06/15 03:03:47;;;;;;;14.43;11.88;;;15.60;99.90;;;;;;5068791;28;20052;-68
2021/06/15 03:06:15;;;;;;;13.18;11.85;;;15.60;99.90;;;;;;5070734;28;20047;-68
2021/06/15 03:08:43;;;;;;;12.80;11.65;;;15.50;99.90;;;;;;5049534;28;20064;-69
2021/06/15 03:11:16;;;;;;;11.93;10.88;;;15.50;99.90;;;;;;5083068;28;20052;-69
2021/06/15 03:14:02;;;;;;;12.88;11.68;;;15.40;99.90;;;;;;5087000;28;20066;-69
2021/06/15 03:16:33;;;;;;;13.50;12.10;;;15.40;99.90;;;;;;5070293;28;20036;-68
2021/06/15 03:19:22;;;;;;;13.05;11.77;;;15.40;99.90;;;;;;5062305;28;20083;-69
2021/06/15 03:21:58;;;;;;;12.93;11.38;;;15.40;99.90;;;;;;5069868;28;20507;-68
2021/06/15 03:24:30;;;;;;;12.80;11.55;;;15.40;99.90;;;;;;5053732;28;20048;-69
2021/06/15 03:27:07;;;;;;;12.30;11.20;;;15.40;99.90;;;;;;5090762;28;20392;-69
2021/06/15 03:29:42;;;;;;;12.68;11.57;;;15.30;99.90;;;;;;5069857;28;20044;-68
2021/06/15 03:32:13;;;;;;;12.27;11.00;;;15.30;99.90;;;;;;5070103;28;20059;-68
2021/06/15 03:34:48;;;;;;;15.57;11.88;;;15.30;99.90;;;;;;5070520;28;20064;-68
2021/06/15 03:37:20;;;;;;;14.52;12.00;;;15.30;99.90;;;;;;5053753;28;20106;-68
2021/06/15 03:39:50;;;;;;;12.50;11.38;;;15.30;99.90;;;;;;5085794;28;20049;-68
2021/06/15 03:42:24;;;;;;;13.25;12.02;;;15.30;99.90;;;;;;5050918;28;20056;-68
2021/06/15 03:45:05;;;;;;;12.85;11.75;;;15.30;99.90;;;;;;5060739;28;20052;-68
2021/06/15 03:47:36;;;;;;;12.73;11.57;;;15.30;99.90;;;;;;5066676;28;20440;-69
2021/06/15 03:50:04;;;;;;;12.13;10.93;;;15.30;99.90;;;;;;5049575;28;20053;-68
2021/06/15 03:52:38;;;;;;;12.98;11.68;;;15.40;99.90;;;;;;5066553;28;20121;-69
2021/06/15 03:55:08;;;;;;;12.38;11.18;;;15.40;99.90;;;;;;5070712;28;20079;-69
2021/06/15 03:57:46;;;;;;;12.02;10.85;;;15.40;99.90;;;;;;5084980;28;20478;-68
2021/06/15 04:00:17;;;;;;;11.93;10.82;;;15.40;99.90;;;;;;5059961;28;20656;-68
2021/06/15 04:02:47;;;;;;;11.07;9.88;;;15.50;99.90;;;;;;5062837;28;20107;-68
2021/06/15 04:05:17;;;;;;;12.18;11.07;;;15.50;99.90;;;;;;5068104;28;20052;-68
2021/06/15 04:07:46;;;;;;;13.68;12.48;;;15.50;99.90;;;;;;5036620;28;20073;-69
2021/06/15 04:10:15;;;;;;;12.88;11.60;;;15.50;99.90;;;;;;5075861;28;20395;-68
2021/06/15 04:12:46;;;;;;;16.02;11.63;;;15.60;99.90;;;;;;5068198;28;20098;-68
2021/06/15 04:15:14;;;;;;;14.85;12.00;;;15.60;99.90;;;;;;5049385;28;20041;-68
2021/06/15 04:17:47;;;;;;;13.13;11.75;;;15.60;99.90;;;;;;5068893;28;20064;-68
2021/06/15 04:20:19;;;;;;;12.25;11.15;;;15.70;99.90;;;;;;5070011;28;20075;-68
2021/06/15 04:22:48;;;;;;;12.18;11.10;;;15.70;99.90;;;;;;5063478;28;20045;-68
2021/06/15 04:25:26;;;;;;;12.57;11.32;;;15.70;99.90;;;;;;5051559;28;20032;-68
2021/06/15 04:27:54;;;;;;;12.13;11.02;;;15.70;99.90;;;;;;5071067;28;20438;-68
2021/06/15 04:30:24;;;;;;;12.30;11.20;;;15.70;99.90;;;;;;5070832;28;20075;-68
2021/06/15 04:33:00;;;;;;;12.82;11.48;;;15.80;99.90;;;;;;5064484;28;20423;-68
2021/06/15 04:35:31;;;;;;;13.45;11.60;;;15.80;99.90;;;;;;5068463;28;20052;-69
2021/06/15 04:38:06;;;;;;;12.82;11.35;;;15.90;99.90;;;;;;5048894;28;20458;-68
2021/06/15 04:40:43;;;;;;;15.23;11.38;;;15.90;99.90;;;;;;5079253;28;20454;-68
2021/06/15 04:43:33;;;;;;;13.13;11.82;;;16.00;99.90;;;;;;5059927;28;20450;-69
2021/06/15 04:46:18;;;;;;;11.80;10.60;;;16.00;99.90;;;;;;5058578;28;20041;-69
2021/06/15 04:48:50;;;;;;;12.65;11.32;;;16.10;99.90;;;;;;5054978;28;20106;-68
2021/06/15 04:51:20;;;;;;;13.80;12.57;;;16.20;99.90;;;;;;5052923;28;20124;-68
2021/06/15 04:53:48;;;;;;;15.48;13.68;;;16.30;99.90;;;;;;5078220;28;20392;-69
2021/06/15 04:56:17;;;;;;;15.80;14.20;;;16.30;99.90;;;;;;5056944;28;20041;-68
2021/06/15 04:58:46;;;;;;;14.70;13.10;;;16.40;99.90;;;;;;5060835;28;20053;-68
2021/06/15 05:01:16;;;;;;;13.50;12.10;;;16.40;99.90;;;;;;5068637;28;20045;-68
2021/06/15 05:03:45;;;;;;;13.30;12.10;;;16.60;99.90;;;;;;5060631;28;20106;-68
2021/06/15 05:06:14;;;;;;;12.70;11.50;;;16.70;99.90;;;;;;5067204;28;20048;-68
2021/06/15 05:08:47;;;;;;;12.48;11.27;;;16.90;99.90;;;;;;5069181;28;20466;-67
2021/06/15 05:11:16;;;;;;;14.80;13.27;;;17.00;99.90;;;;;;5065479;28;20064;-67
2021/06/15 05:13:45;;;;;;;13.07;11.77;;;17.10;99.90;;;;;;5069045;28;20517;-69
2021/06/15 05:16:14;;;;;;;12.52;11.32;;;17.20;99.90;;;;;;5071759;28;20052;-69
2021/06/15 05:18:42;;;;;;;14.77;13.05;;;17.30;99.90;;;;;;5072623;28;20037;-69
2021/06/15 05:21:51;;;;;;;13.85;12.57;;;17.40;99.90;;;;;;5036360;28;20045;-68
2021/06/15 05:24:31;;;;;;;13.20;11.77;;;17.50;99.90;;;;;;5064308;28;20044;-68
2021/06/15 05:26:59;;;;;;;14.57;12.93;;;17.60;99.90;;;;;;5067978;28;20056;-68
2021/06/15 05:29:26;;;;;;;13.95;12.55;;;17.70;99.90;;;;;;5072917;28;20087;-68
2021/06/15 05:31:53;;;;;;;16.30;13.98;;;17.80;99.90;;;;;;5072105;28;20055;-68
2021/06/15 05:34:20;;;;;;;12.43;11.32;;;18.00;99.90;;;;;;5069883;28;20474;-69
2021/06/15 05:36:49;;;;;;;13.48;12.25;;;18.00;99.90;;;;;;5066178;28;20048;-69
2021/06/15 05:39:16;;;;;;;16.77;11.77;;;18.10;99.90;;;;;;5056110;28;20483;-69
2021/06/15 05:41:44;;;;;;;12.07;11.07;;;18.20;99.90;;;;;;5053957;28;20113;-69
2021/06/15 05:44:11;;;;;;;12.38;11.25;;;18.30;99.90;;;;;;5074695;28;20422;-69
2021/06/15 05:46:39;;;;;;;11.60;10.52;;;18.40;99.90;;;;;;5069890;28;20490;-69
2021/06/15 05:49:06;;;;;;;12.20;11.05;;;18.50;99.90;;;;;;5055411;28;20523;-69
2021/06/15 05:51:34;;;;;;;17.08;15.35;;;18.50;99.90;;;;;;5073241;28;20369;-69
2021/06/15 05:54:03;;;;;;;15.10;13.65;;;18.60;99.90;;;;;;5068808;28;20414;-70
2021/06/15 05:56:30;;;;;;;13.45;12.25;;;18.70;99.90;;;;;;5070796;28;20124;-69
2021/06/15 05:58:58;;;;;;;15.20;13.80;;;18.80;99.90;;;;;;5066206;28;20052;-68
2021/06/15 06:01:27;;;;;;;14.98;12.32;;;18.80;99.90;;;;;;5073613;28;20037;-68
2021/06/15 06:04:06;;;;;;;18.63;14.77;;;18.90;99.90;;;;;;5073802;28;20474;-70
2021/06/15 06:09:19;;;;;;;17.20;14.50;;;19.10;99.90;;;;;;5062253;28;20048;-69
2021/06/15 06:11:47;;;;;;;15.13;12.82;;;19.30;99.90;;;;;;5072124;28;20054;-69
2021/06/15 06:14:15;;;;;;;14.30;11.55;;;19.40;99.90;;;;;;5060081;28;20132;-69
2021/06/15 06:16:43;;;;;;;12.25;11.15;;;19.50;99.90;;;;;;5070726;28;20045;-69
2021/06/15 06:19:14;;;;;;;12.45;11.25;;;19.70;99.90;;;;;;5055727;28;20040;-69
2021/06/15 06:21:43;;;;;;;12.65;11.43;;;19.80;99.90;;;;;;5063333;28;20048;-69
2021/06/15 06:24:12;;;;;;;12.75;11.65;;;19.80;99.90;;;;;;5055034;28;20076;-69
2021/06/15 06:26:40;;;;;;;13.43;12.23;;;19.90;99.90;;;;;;5075188;28;20056;-69
2021/06/15 06:29:08;;;;;;;13.40;12.10;;;20.10;99.90;;;;;;5067975;28;20114;-69
2021/06/15 06:31:35;;;;;;;12.90;11.48;;;20.20;99.90;;;;;;5068752;28;20433;-69
2021/06/15 06:34:03;;;;;;;18.02;16.23;;;20.40;99.90;;;;;;5069450;28;20037;-69
2021/06/15 06:36:30;;;;;;;16.77;13.63;;;20.50;99.90;;;;;;5071050;28;20147;-69
2021/06/15 06:39:02;;;;;;;14.32;12.80;;;20.60;99.90;;;;;;5069240;28;20048;-68
2021/06/15 06:41:29;;;;;;;14.73;11.60;;;20.70;99.90;;;;;;5070153;28;20483;-69
2021/06/15 06:43:57;;;;;;;12.45;10.85;;;20.80;99.90;;;;;;5067647;28;20500;-68
2021/06/15 06:46:24;;;;;;;12.30;11.07;;;20.80;99.90;;;;;;5057004;28;20507;-69
2021/06/15 06:48:52;;;;;;;13.65;10.93;;;20.90;99.90;;;;;;5061829;28;20056;-69
2021/06/15 06:51:19;;;;;;;11.48;10.40;;;20.90;99.90;;;;;;5069375;28;20091;-68
2021/06/15 06:53:47;;;;;;;11.60;10.48;;;21.00;99.90;;;;;;5054458;28;20040;-68
2021/06/15 06:56:15;;;;;;;15.18;13.60;;;21.10;99.90;;;;;;5053959;28;20083;-68
2021/06/15 06:58:50;;;;;;;12.93;11.73;;;21.20;99.90;;;;;;5068244;28;20055;-67
2021/06/15 07:01:17;;;;;;;12.98;11.27;;;21.30;99.90;;;;;;5070214;28;20126;-68
2021/06/15 07:03:44;;;;;;;12.07;10.93;;;21.40;99.90;;;;;;5062569;28;20047;-68
2021/06/15 07:06:12;;;;;;;11.70;10.50;;;21.50;99.90;;;;;;5062464;28;20109;-68
2021/06/15 07:08:39;;;;;;;12.73;11.43;;;21.50;99.90;;;;;;5070897;28;20896;-68
2021/06/15 07:11:07;;;;;;;11.23;10.20;;;21.50;99.90;;;;;;5070950;28;20087;-68
2021/06/15 07:13:35;;;;;;;11.27;10.18;;;21.60;99.90;;;;;;5071589;28;20048;-67
2021/06/15 07:16:02;;;;;;;11.55;10.55;;;21.60;99.90;;;;;;5072217;28;20481;-67
2021/06/15 07:18:31;;;;;;;12.27;10.80;;;21.70;99.90;;;;;;5068909;28;20044;-67
2021/06/15 07:20:58;;;;;;;12.07;10.65;;;21.80;99.90;;;;;;5055398;28;20067;-67
2021/06/15 07:23:26;;;;;;;14.32;10.25;;;21.90;99.90;;;;;;5072262;28;20044;-68
2021/06/15 07:25:53;;;;;;;10.90;9.98;;;22.00;99.90;;;;;;5075518;28;20482;-66
2021/06/15 07:28:21;;;;;;;11.43;10.30;;;22.10;99.90;;;;;;5065733;28;20495;-67
2021/06/15 07:30:48;;;;;;;11.50;10.50;;;22.20;99.90;;;;;;5078931;28;20080;-67
2021/06/15 07:33:16;;;;;;;11.73;10.77;;;22.40;99.90;;;;;;5053540;28;20102;-66
2021/06/15 07:35:44;;;;;;;10.80;9.88;;;22.50;99.90;;;;;;5055543;28;20133;-66
2021/06/15 07:38:11;;;;;;;10.98;9.98;;;22.60;99.90;;;;;;5065769;28;20127;-67
2021/06/15 07:40:38;;;;;;;11.55;10.65;;;22.70;99.90;;;;;;5069728;28;20624;-67
2021/06/15 07:43:06;;;;;;;11.75;10.68;;;22.80;99.90;;;;;;5063584;28;20132;-67
2021/06/15 07:45:36;;;;;;;13.57;12.27;;;22.80;99.90;;;;;;5061896;28;20385;-67
2021/06/15 07:48:05;;;;;;;13.30;12.03;;;22.90;99.90;;;;;;5058068;28;20083;-68
2021/06/15 07:50:32;;;;;;;12.50;10.98;;;22.90;99.90;;;;;;5069654;28;20117;-66
2021/06/15 07:53:00;;;;;;;12.05;10.90;;;22.90;99.90;;;;;;5068497;28;20052;-66
2021/06/15 07:55:28;;;;;;;12.70;11.20;;;22.90;99.90;;;;;;5062943;28;20076;-67
2021/06/15 07:57:56;;;;;;;12.20;11.10;;;23.00;99.90;;;;;;5065659;28;20164;-66
2021/06/15 08:00:23;;;;;;;11.68;10.52;;;23.00;99.90;;;;;;5060762;28;20071;-66
2021/06/15 08:02:50;;;;;;;12.55;11.30;;;23.10;99.90;;;;;;5066398;28;20120;-66
2021/06/15 08:05:18;;;;;;;12.20;10.98;;;23.30;99.90;;;;;;5070007;28;20773;-67
2021/06/15 08:07:51;;;;;;;13.60;11.30;;;23.40;99.90;;;;;;5068718;28;20055;-66
2021/06/15 08:10:19;;;;;;;11.70;10.60;;;23.50;99.90;;;;;;5065646;28;20048;-66
2021/06/15 08:12:48;;;;;;;12.40;11.30;;;23.70;99.90;;;;;;5052934;28;20103;-66
2021/06/15 08:15:16;;;;;;;12.77;10.73;;;23.80;99.90;;;;;;5069489;28;20048;-66
2021/06/15 08:17:45;;;;;;;11.60;10.60;;;23.90;99.90;;;;;;5070791;28;20048;-66
2021/06/15 08:20:13;;;;;;;14.27;11.50;;;24.10;99.90;;;;;;5071454;28;20128;-66
2021/06/15 08:22:40;;;;;;;11.93;10.82;;;24.20;99.90;;;;;;5069550;28;20521;-66
2021/06/15 08:25:08;;;;;;;11.45;10.65;;;24.40;99.90;;;;;;5071137;28;20048;-66
2021/06/15 08:27:36;;;;;;;12.27;11.05;;;24.50;99.90;;;;;;5076681;28;20052;-67
2021/06/15 08:30:06;;;;;;;14.77;13.32;;;24.60;99.90;;;;;;5070124;28;20453;-67
2021/06/15 08:32:34;;;;;;;15.27;13.80;;;24.70;99.90;;;;;;5069224;28;20068;-67
2021/06/15 08:35:03;;;;;;;12.82;11.35;;;24.80;99.90;;;;;;5058300;28;20574;-67
2021/06/15 08:37:30;;;;;;;12.55;11.45;;;24.80;99.90;;;;;;5061878;28;20044;-67
2021/06/15 08:39:58;;;;;;;11.65;10.65;;;24.90;99.90;;;;;;5059914;28;20063;-67
2021/06/15 08:42:26;;;;;;;12.15;11.18;;;25.10;99.90;;;;;;5069513;28;20566;-67
2021/06/15 08:44:54;;;;;;;11.88;10.73;;;25.20;99.90;;;;;;5070206;28;20456;-67
2021/06/15 08:47:21;;;;;;;11.85;10.85;;;25.30;99.90;;;;;;5063873;28;20141;-67
2021/06/15 08:49:48;;;;;;;11.85;10.75;;;25.40;99.80;;;;;;5070059;28;20135;-67
2021/06/15 08:52:16;;;;;;;11.75;10.85;;;25.50;99.50;;;;;;5072524;28;20064;-67
2021/06/15 08:54:44;;;;;;;11.32;10.43;;;25.70;99.90;;;;;;5060396;28;20143;-67
2021/06/15 08:57:18;;;;;;;12.18;11.00;;;25.90;99.40;;;;;;5072383;28;20079;-68
2021/06/15 08:59:45;;;;;;;12.07;10.85;;;26.10;99.20;;;;;;5061162;28;20124;-67
2021/06/15 09:02:13;;;;;;;11.77;10.50;;;26.30;98.00;;;;;;5073272;28;20541;-67
2021/06/15 09:04:41;;;;;;;11.68;10.57;;;26.20;97.30;;;;;;5069818;28;20090;-67
2021/06/15 09:07:09;;;;;;;10.68;9.77;;;26.40;96.90;;;;;;5071869;28;20056;-67
2021/06/15 09:09:42;;;;;;;11.90;10.77;;;26.50;96.10;;;;;;5071512;28;20516;-67
2021/06/15 09:12:12;;;;;;;11.25;10.35;;;26.70;95.90;;;;;;5073494;28;20507;-67
2021/06/15 09:14:56;;;;;;;11.93;11.02;;;26.90;96.10;;;;;;5074713;28;20075;-67
2021/06/15 09:17:27;;;;;;;12.40;11.27;;;27.30;94.90;;;;;;5073172;28;20044;-67
2021/06/15 09:20:18;;;;;;;11.20;10.30;;;27.50;94.20;;;;;;5074952;28;20439;-67
2021/06/15 09:22:55;;;;;;;11.25;10.25;;;27.70;93.20;;;;;;5074608;28;20463;-67
2021/06/15 09:25:24;;;;;;;11.18;10.18;;;27.70;92.30;;;;;;5071608;28;20072;-67
2021/06/15 09:27:54;;;;;;;11.35;10.45;;;27.70;91.60;;;;;;5074564;28;20499;-68
2021/06/15 09:30:25;;;;;;;11.77;10.88;;;27.70;91.40;;;;;;5066371;28;20079;-67
2021/06/15 09:32:53;;;;;;;;;;;27.70;90.90;;;;;;5066266;28;20060;-67
2021/06/15 09:35:24;;;;;;;11.50;10.50;;;27.90;90.80;;;;;;5062928;28;19963;-68
2021/06/15 09:37:55;;;;;;;10.88;9.98;;;28.10;90.70;;;;;;5073362;28;20131;-68
2021/06/15 09:40:24;;;;;;;11.57;10.38;;;28.50;91.00;;;;;;5069452;28;20048;-66
2021/06/15 09:43:03;;;;;;;11.65;10.35;;;28.80;89.80;;;;;;5070941;28;20131;-67
2021/06/15 09:45:35;;;;;;;11.18;10.18;;;29.00;89.10;;;;;;5073199;28;20051;-66
2021/06/15 09:48:38;;;;;;;11.60;10.68;;;29.20;88.90;;;;;;5072823;28;20076;-66
2021/06/15 09:51:09;;;;;;;10.80;10.00;;;29.20;87.20;;;;;;5073740;28;20057;-67
2021/06/15 09:53:38;;;;;;;11.50;10.60;;;29.30;87.40;;;;;;5063675;28;20596;-66
2021/06/15 09:56:07;;;;;;;11.23;10.43;;;29.50;87.30;;;;;;5070738;28;20122;-66
2021/06/15 09:58:53;;;;;;;12.25;11.02;;;29.70;86.60;;;;;;5062533;28;20049;-66
2021/06/15 10:01:42;;;;;;;12.27;11.27;;;29.40;84.60;;;;;;5069137;28;20041;-68
2021/06/15 10:04:20;;;;;;;11.43;10.38;;;29.60;85.00;;;;;;5070822;28;20051;-66
2021/06/15 10:06:50;;;;;;;11.50;10.50;;;29.70;84.80;;;;;;5066352;28;20355;-66
2021/06/15 10:09:24;;;;;;;11.10;10.20;;;29.60;83.80;;;;;;5071270;28;20072;-66
2021/06/15 10:11:53;;;;;;;11.88;10.88;;;29.30;84.30;;;;;;5059933;28;20049;-67
2021/06/15 10:14:22;;;;;;;12.32;11.32;;;29.40;84.10;;;;;;5066365;28;20068;-66
2021/06/15 10:16:50;;;;;;;12.00;10.80;;;29.60;83.80;;;;;;5058626;28;20070;-67
2021/06/15 10:19:18;;;;;;;12.45;11.55;;;30.00;83.90;;;;;;5061097;28;20041;-66
2021/06/15 10:21:45;;;;;;;12.70;11.50;;;30.40;83.80;;;;;;5069390;28;20402;-66
2021/06/15 10:24:22;;;;;;;12.32;11.30;;;30.50;82.80;;;;;;5072790;28;20052;-66
2021/06/15 10:27:08;;;;;;;13.18;12.02;;;30.50;82.40;;;;;;5073406;28;20076;-67
2021/06/15 10:29:38;;;;;;;12.43;11.33;;;30.80;83.00;;;;;;5066416;28;20530;-67
2021/06/15 10:32:18;;;;;;;12.40;11.27;;;30.90;81.30;;;;;;5070981;28;20086;-67
2021/06/15 10:34:57;;;;;;;11.98;10.85;;;30.90;81.30;;;;;;5072067;28;20072;-66
2021/06/15 10:37:37;;;;;;;12.30;11.20;;;31.30;81.80;;;;;;5054620;28;20048;-67
2021/06/15 10:40:06;;;;;;;12.20;11.20;;;31.50;80.20;;;;;;5053221;28;20460;-67
2021/06/15 10:42:34;;;;;;;11.20;10.40;;;31.70;80.10;;;;;;5066048;28;20128;-67
2021/06/15 10:45:13;;;;;;;12.63;11.73;;;31.60;79.60;;;;;;5052760;28;20132;-67
2021/06/15 10:48:00;;;;;;;12.45;11.23;;;31.70;79.40;;;;;;5051715;28;20139;-67
2021/06/15 10:50:44;;;;;;;12.20;11.10;;;31.90;78.60;;;;;;5052212;28;20415;-67
2021/06/15 10:53:12;;;;;;;10.95;10.15;;;32.10;78.50;;;;;;5057882;28;20474;-67
2021/06/15 10:55:52;;;;;;;11.23;10.40;;;32.20;77.80;;;;;;5065143;28;20048;-67
2021/06/15 10:58:44;;;;;;;11.27;10.45;;;32.00;76.20;;;;;;5071064;28;20110;-67
2021/06/15 11:01:21;;;;;;;11.45;10.55;;;31.90;76.40;;;;;;5072319;28;20489;-67
2021/06/15 11:04:08;;;;;;;11.73;10.63;;;31.70;78.00;;;;;;5061409;28;20487;-67
2021/06/15 11:06:37;;;;;;;11.18;10.02;;;31.70;78.00;;;;;;5071759;28;20138;-67
2021/06/15 11:09:12;;;;;;;11.52;10.43;;;31.80;76.50;;;;;;5055431;28;20048;-66
2021/06/15 11:11:41;;;;;;;10.93;10.02;;;31.70;75.90;;;;;;5070088;28;20076;-66
2021/06/15 11:14:17;;;;;;;11.25;9.95;;;31.90;76.30;;;;;;5069590;28;20110;-67
2021/06/15 11:16:47;;;;;;;11.07;10.20;;;32.20;75.90;;;;;;5070541;28;20083;-66
2021/06/15 11:19:17;;;;;;;11.77;10.70;;;32.40;73.90;;;;;;5071687;28;20094;-66
2021/06/15 11:21:47;;;;;;;10.63;9.93;;;32.10;75.00;;;;;;5071503;28;20525;-66
2021/06/15 11:24:24;;;;;;;10.73;9.82;;;31.90;75.50;;;;;;5062594;28;20041;-67
2021/06/15 11:27:00;;;;;;;11.10;10.20;;;31.90;74.50;;;;;;5075590;28;20123;-67
2021/06/15 11:29:35;;;;;;;10.85;9.98;;;31.50;74.50;;;;;;5067331;28;20099;-67
2021/06/15 11:32:12;;;;;;;11.55;10.55;;;31.50;75.00;;;;;;5070103;28;20131;-66
2021/06/15 11:34:41;;;;;;;12.20;11.05;;;31.20;76.50;;;;;;5070441;28;20095;-67
2021/06/15 11:37:18;;;;;;;11.60;10.50;;;31.10;75.30;;;;;;5055535;28;20080;-67
2021/06/15 11:39:52;;;;;;;11.50;10.60;;;30.80;75.90;;;;;;5051984;28;20492;-67
2021/06/15 11:42:27;;;;;;;11.85;10.95;;;30.80;76.50;;;;;;5058188;28;20109;-67
2021/06/15 11:45:10;;;;;;;11.30;10.40;;;30.80;76.00;;;;;;5070030;28;20075;-67
2021/06/15 11:47:47;;;;;;;11.35;10.52;;;30.90;75.20;;;;;;5069348;28;20048;-67
2021/06/15 11:50:25;;;;;;;13.00;11.85;;;30.90;75.80;;;;;;5071718;28;20076;-67
2021/06/15 11:52:56;;;;;;;12.40;11.40;;;31.20;74.20;;;;;;5070915;28;20061;-67
2021/06/15 11:55:31;;;;;;;11.38;10.50;;;31.60;73.70;;;;;;5070957;28;20052;-67
2021/06/15 11:58:03;;;;;;;11.43;10.40;;;32.40;73.00;;;;;;5070368;28;20563;-67
2021/06/15 12:00:36;;;;;;;12.27;11.18;;;33.00;71.40;;;;;;5064619;28;20068;-67
2021/06/15 12:03:18;;;;;;;11.50;10.50;;;33.80;71.20;;;;;;5063380;28;20072;-67
2021/06/15 12:05:58;;;;;;;11.43;10.60;;;34.00;69.40;;;;;;5067521;28;20080;-67
2021/06/15 12:08:34;;;;;;;11.48;10.68;;;33.60;70.00;;;;;;5064468;28;20109;-67
2021/06/15 12:11:02;;;;;;;11.90;10.70;;;33.20;69.30;;;;;;5066846;28;20462;-67
2021/06/15 12:13:31;;;;;;;10.48;9.48;;;33.20;69.10;;;;;;5070518;28;20483;-66
2021/06/15 12:16:05;;;;;;;11.15;10.35;;;33.60;68.00;;;;;;5070551;28;20110;-66
2021/06/15 12:18:36;;;;;;;11.35;10.55;;;34.00;67.20;;;;;;5070183;28;20040;-66
2021/06/15 12:21:05;;;;;;;11.98;10.90;;;34.60;66.50;;;;;;5070453;28;20059;-67
2021/06/15 12:23:38;;;;;;;11.75;10.60;;;35.00;66.30;;;;;;5070236;28;20178;-67
2021/06/15 12:26:29;;;;;;;11.18;10.18;;;35.50;64.70;;;;;;5069389;28;20080;-67
2021/06/15 12:29:08;;;;;;;11.80;10.40;;;35.60;64.50;;;;;;5069153;28;20056;-67
2021/06/15 12:31:43;;;;;;;11.90;11.05;;;36.00;63.30;;;;;;5065333;28;20301;-67
2021/06/15 12:34:14;;;;;;;12.30;10.82;;;36.00;62.60;;;;;;5065828;28;20068;-67
2021/06/15 12:36:45;;;;;;;11.68;10.77;;;36.40;62.20;;;;;;5061568;28;20131;-68
2021/06/15 12:39:15;;;;;;;11.18;10.38;;;36.40;61.50;;;;;;5067921;28;20072;-67
2021/06/15 12:41:48;;;;;;;12.30;11.23;;;36.50;61.50;;;;;;5068648;28;20048;-67
2021/06/15 12:44:16;;;;;;;11.85;11.00;;;36.20;61.20;;;;;;5070330;28;20094;-67
2021/06/15 12:46:45;;;;;;;11.25;10.43;;;35.00;61.40;;;;;;5070167;28;20091;-67
2021/06/15 12:49:23;;;;;;;11.50;10.60;;;35.20;62.40;;;;;;5069821;28;20415;-68
2021/06/15 12:51:53;;;;;;;11.13;10.32;;;35.70;61.90;;;;;;5063731;28;20052;-68
2021/06/15 12:54:22;;;;;;;11.52;10.70;;;36.10;61.00;;;;;;5084795;28;20134;-67
2021/06/15 12:57:11;;;;;;;10.80;10.10;;;35.90;60.40;;;;;;5063992;28;20087;-68